Time;durP1;ratioP1;P1;durP2;ratioP2;P2;SDS_P1;SDS_P2;PMS_P1;PMS_P2;Temp;Humidity;BMP_temperature;BMP_pressure;BME280_temperature;BME280_humidity;BME280_pressure;Samples;Min_cycle;Max_cycle;Signal;HPM_P1;HPM_P2
2022/08/19 00:00:14;;;;;;;2.60;2.28;;;21.80;93.90;;;;;;10439836;28;20052;-61
2022/08/19 00:05:16;;;;;;;2.95;2.00;;;21.70;93.90;;;;;;10422141;28;20640;-60
2022/08/19 00:10:18;;;;;;;2.30;2.08;;;21.70;93.90;;;;;;10439613;28;20574;-61
2022/08/19 00:15:20;;;;;;;2.78;2.03;;;21.70;93.90;;;;;;10440702;28;20072;-61
2022/08/19 00:20:22;;;;;;;3.45;2.17;;;21.70;93.80;;;;;;10437426;28;20021;-61
2022/08/19 00:25:23;;;;;;;2.85;2.33;;;21.60;93.80;;;;;;10437794;28;20041;-61
2022/08/19 00:30:23;;;;;;;3.20;2.10;;;21.60;93.80;;;;;;10438383;28;20033;-60
2022/08/19 00:35:26;;;;;;;2.53;1.83;;;21.60;93.80;;;;;;10435922;28;20033;-61
2022/08/19 00:40:27;;;;;;;3.28;2.15;;;21.60;93.80;;;;;;10435605;28;20029;-61
2022/08/19 00:45:31;;;;;;;3.35;2.10;;;21.60;94.00;;;;;;10437894;28;20564;-60
2022/08/19 00:50:33;;;;;;;2.35;1.80;;;21.50;93.70;;;;;;10435967;28;20031;-60
2022/08/19 00:55:34;;;;;;;2.33;1.98;;;21.50;93.70;;;;;;10438071;28;20291;-60
2022/08/19 01:00:37;;;;;;;3.88;2.30;;;21.50;93.70;;;;;;10434646;28;20017;-61
2022/08/19 01:05:41;;;;;;;3.53;1.92;;;21.50;93.70;;;;;;10436163;28;20114;-60
2022/08/19 01:10:51;;;;;;;2.35;1.90;;;21.50;93.70;;;;;;10436167;28;20983;-60
2022/08/19 01:15:57;;;;;;;2.40;1.98;;;21.40;93.60;;;;;;10437349;28;20072;-61
2022/08/19 01:21:03;;;;;;;2.83;2.00;;;21.40;93.60;;;;;;10435333;28;20055;-60
2022/08/19 01:26:04;;;;;;;2.30;2.08;;;21.40;93.70;;;;;;10431797;28;20397;-61
2022/08/19 01:31:06;;;;;;;2.50;1.92;;;21.40;93.60;;;;;;10435562;28;20067;-60
2022/08/19 01:36:32;;;;;;;2.78;1.90;;;21.40;93.60;;;;;;10437018;28;20017;-61
2022/08/19 01:41:33;;;;;;;4.20;2.05;;;21.40;93.60;;;;;;10435448;28;20048;-61
2022/08/19 01:46:34;;;;;;;2.45;1.75;;;21.30;93.60;;;;;;10435112;28;20040;-60
2022/08/19 01:51:36;;;;;;;2.20;2.00;;;21.30;93.60;;;;;;10435268;28;20024;-61
2022/08/19 01:56:38;;;;;;;4.38;2.30;;;21.30;93.60;;;;;;10431104;28;20025;-60
2022/08/19 02:01:38;;;;;;;2.30;2.00;;;21.30;93.60;;;;;;10431777;28;20037;-61
2022/08/19 02:06:39;;;;;;;2.45;2.00;;;21.20;93.50;;;;;;10434243;28;20039;-60
2022/08/19 02:11:41;;;;;;;2.65;1.73;;;21.20;93.60;;;;;;10434569;28;20025;-60
2022/08/19 02:16:42;;;;;;;3.05;2.17;;;21.20;93.60;;;;;;10414412;28;20063;-61
2022/08/19 02:21:43;;;;;;;3.47;1.80;;;21.20;93.60;;;;;;10435410;28;20059;-62
2022/08/19 02:26:44;;;;;;;2.75;1.85;;;21.10;93.50;;;;;;10432677;28;20629;-60
2022/08/19 02:31:45;;;;;;;3.17;1.80;;;21.10;93.50;;;;;;10412032;28;20029;-60
2022/08/19 02:36:45;;;;;;;12.68;2.38;;;21.10;93.50;;;;;;10437669;28;20032;-63
2022/08/19 02:41:46;;;;;;;2.25;1.98;;;21.10;93.50;;;;;;10440744;28;20060;-61
2022/08/19 02:46:52;;;;;;;2.72;2.40;;;21.10;93.50;;;;;;10442356;28;20498;-61
2022/08/19 02:51:52;;;;;;;3.85;2.30;;;21.00;93.60;;;;;;10440825;28;20017;-61
2022/08/19 02:56:53;;;;;;;2.50;2.08;;;21.00;93.50;;;;;;10439205;28;20017;-60
2022/08/19 03:01:54;;;;;;;3.15;2.03;;;21.00;93.50;;;;;;10440699;28;20076;-60
2022/08/19 03:06:55;;;;;;;3.05;2.15;;;21.00;93.50;;;;;;10421707;28;20029;-62
2022/08/19 03:11:55;;;;;;;2.95;2.10;;;21.00;93.50;;;;;;10440106;28;20374;-61
2022/08/19 03:16:57;;;;;;;3.45;2.13;;;21.00;93.50;;;;;;10415101;28;20067;-60
2022/08/19 03:21:58;;;;;;;4.10;2.00;;;20.90;93.50;;;;;;10437639;28;20392;-61
2022/08/19 03:26:59;;;;;;;3.33;1.95;;;20.90;93.50;;;;;;10438212;28;20021;-61
2022/08/19 03:32:00;;;;;;;3.10;2.33;;;20.90;93.50;;;;;;10436487;28;20651;-60
2022/08/19 03:37:06;;;;;;;3.00;1.88;;;20.90;93.50;;;;;;10439969;28;20442;-61
2022/08/19 03:42:07;;;;;;;3.10;2.38;;;20.90;93.50;;;;;;10438112;28;20068;-61
2022/08/19 03:47:08;;;;;;;3.72;2.20;;;20.80;93.50;;;;;;10436674;28;20018;-61
2022/08/19 03:52:09;;;;;;;3.70;2.28;;;20.80;93.40;;;;;;10439505;28;20021;-60
2022/08/19 03:57:10;;;;;;;3.60;2.13;;;20.80;93.40;;;;;;10435945;28;20512;-60
2022/08/19 04:02:12;;;;;;;3.00;2.03;;;20.80;93.40;;;;;;10436155;28;20039;-61
2022/08/19 04:07:21;;;;;;;3.00;2.17;;;20.80;93.40;;;;;;10438430;28;20036;-61
2022/08/19 04:12:21;;;;;;;2.97;2.33;;;20.80;93.40;;;;;;10419191;28;20039;-61
2022/08/19 04:17:22;;;;;;;3.30;2.55;;;20.70;93.40;;;;;;10437958;28;20484;-61
2022/08/19 04:22:23;;;;;;;2.28;2.08;;;20.70;93.40;;;;;;10438120;28;20079;-61
2022/08/19 04:27:24;;;;;;;2.83;2.42;;;20.70;93.40;;;;;;10439233;28;20036;-61
2022/08/19 04:32:24;;;;;;;3.40;2.13;;;20.70;93.40;;;;;;10436476;28;20033;-60
2022/08/19 04:37:27;;;;;;;2.58;2.30;;;20.70;93.40;;;;;;10436665;28;20059;-60
2022/08/19 04:42:39;;;;;;;2.65;1.90;;;20.70;93.40;;;;;;10436745;28;20029;-61
2022/08/19 04:47:43;;;;;;;2.10;1.90;;;20.60;93.40;;;;;;10436963;28;20457;-60
2022/08/19 04:52:43;;;;;;;3.58;2.60;;;20.60;93.40;;;;;;10433186;28;20166;-63
2022/08/19 04:57:44;;;;;;;2.47;2.28;;;20.60;93.40;;;;;;10433164;28;20074;-63
2022/08/19 05:02:45;;;;;;;2.28;1.88;;;20.60;93.40;;;;;;10435078;28;20033;-63
2022/08/19 05:07:46;;;;;;;2.92;2.25;;;20.50;93.40;;;;;;10385178;28;20489;-63
2022/08/19 05:12:46;;;;;;;2.80;2.10;;;20.50;93.40;;;;;;10355353;28;20053;-63
2022/08/19 05:22:32;;;;;;;3.42;2.17;;;20.50;93.40;;;;;;10361785;28;20480;-63
2022/08/19 05:23:10;;;;;;;3.17;2.40;;;20.50;93.40;;;;;;10361271;28;20488;-63
2022/08/19 05:28:11;;;;;;;2.67;2.40;;;20.50;93.40;;;;;;10359908;28;20049;-64
2022/08/19 05:33:12;;;;;;;2.95;2.30;;;20.50;93.30;;;;;;10361458;28;20305;-63
2022/08/19 05:38:13;;;;;;;4.18;2.47;;;20.50;93.30;;;;;;10362582;28;20033;-63
2022/08/19 05:43:17;;;;;;;3.03;2.28;;;20.50;93.30;;;;;;10367523;28;21418;-63
2022/08/19 05:48:20;;;;;;;3.80;2.53;;;20.50;93.30;;;;;;10362904;28;20040;-63
2022/08/19 05:53:20;;;;;;;2.67;2.10;;;20.50;93.30;;;;;;10365254;28;20151;-63
2022/08/19 05:58:21;;;;;;;4.38;2.60;;;20.50;93.30;;;;;;10339543;28;20046;-63
2022/08/19 06:03:22;;;;;;;4.22;2.50;;;20.50;93.30;;;;;;10362304;28;20049;-63
2022/08/19 06:08:23;;;;;;;2.70;2.30;;;20.50;93.30;;;;;;10362757;28;20881;-63
2022/08/19 06:13:25;;;;;;;4.38;2.60;;;20.50;93.30;;;;;;10360357;28;20048;-63
2022/08/19 06:18:27;;;;;;;3.35;2.50;;;20.50;93.30;;;;;;10344289;28;20607;-63
2022/08/19 06:23:29;;;;;;;3.80;2.65;;;20.50;93.30;;;;;;10360192;28;20142;-62
2022/08/19 06:28:29;;;;;;;3.70;2.72;;;20.50;93.30;;;;;;10364258;28;20378;-62
2022/08/19 06:33:30;;;;;;;2.88;2.50;;;20.60;93.30;;;;;;10359056;28;20116;-63
2022/08/19 06:38:33;;;;;;;2.95;2.60;;;20.60;93.30;;;;;;10367352;28;20275;-63
2022/08/19 06:43:33;;;;;;;3.88;2.80;;;20.60;93.30;;;;;;10363207;28;20051;-63
2022/08/19 06:48:35;;;;;;;4.63;2.90;;;20.60;93.30;;;;;;10361337;28;20033;-62
2022/08/19 06:53:35;;;;;;;3.13;2.38;;;20.60;93.30;;;;;;10362124;28;20029;-62
2022/08/19 06:58:38;;;;;;;3.95;2.47;;;20.60;93.30;;;;;;10365372;28;20837;-63
2022/08/19 07:03:39;;;;;;;3.75;2.40;;;20.60;93.30;;;;;;10362765;28;20040;-63
2022/08/19 07:08:40;;;;;;;3.85;2.45;;;20.70;93.30;;;;;;10355282;28;20783;-62
2022/08/19 07:13:43;;;;;;;3.55;2.63;;;20.70;93.20;;;;;;10361025;28;20505;-62
2022/08/19 07:18:44;;;;;;;5.60;3.08;;;20.70;93.30;;;;;;10357239;28;20036;-63
2022/08/19 07:23:46;;;;;;;4.10;3.03;;;20.70;93.30;;;;;;10363294;28;20037;-63
2022/08/19 07:28:48;;;;;;;3.60;2.83;;;20.80;93.30;;;;;;10364805;28;20156;-63
2022/08/19 07:33:51;;;;;;;3.35;2.70;;;20.80;93.30;;;;;;10363694;28;20025;-63
2022/08/19 07:38:54;;;;;;;3.25;2.83;;;20.80;93.30;;;;;;10365726;28;20041;-63
2022/08/19 07:43:55;;;;;;;3.38;2.72;;;20.90;93.30;;;;;;10347382;28;20033;-62
2022/08/19 07:48:56;;;;;;;5.63;3.53;;;20.90;93.20;;;;;;10368334;28;20951;-63
2022/08/19 07:53:57;;;;;;;3.97;2.92;;;21.00;93.40;;;;;;10371387;28;20036;-62
2022/08/19 07:58:58;;;;;;;4.22;3.15;;;21.00;93.40;;;;;;10363972;28;20503;-62
2022/08/19 08:09:23;;;;;;;4.63;3.15;;;21.00;93.40;;;;;;10369549;28;20853;-63
2022/08/19 08:14:29;;;;;;;5.05;3.42;;;21.10;93.40;;;;;;10366233;28;20395;-63
2022/08/19 08:19:30;;;;;;;5.03;3.10;;;21.10;93.40;;;;;;10373627;28;20027;-63
2022/08/19 08:24:32;;;;;;;4.47;3.55;;;21.20;93.40;;;;;;10371366;28;20247;-63
2022/08/19 08:29:33;;;;;;;5.70;3.60;;;21.20;93.40;;;;;;10370782;28;20036;-64
2022/08/19 08:34:34;;;;;;;4.40;3.38;;;21.30;93.40;;;;;;10371549;28;20051;-63
2022/08/19 08:39:35;;;;;;;5.60;4.25;;;21.30;93.40;;;;;;10370814;28;20097;-63
2022/08/19 08:44:50;;;;;;;7.57;4.60;;;21.30;93.40;;;;;;10369094;28;20095;-64
2022/08/19 08:50:05;;;;;;;7.03;4.35;;;21.40;93.50;;;;;;10372964;28;20326;-64
2022/08/19 08:55:21;;;;;;;6.40;4.55;;;21.40;93.50;;;;;;10347562;28;20028;-64
2022/08/19 09:00:34;;;;;;;8.23;4.50;;;21.50;93.70;;;;;;10367475;28;20146;-63
2022/08/19 09:05:42;;;;;;;7.13;4.10;;;21.50;93.40;;;;;;10367219;28;20304;-64
2022/08/19 09:10:51;;;;;;;4.90;3.83;;;21.60;93.40;;;;;;10368540;28;20090;-64
2022/08/19 09:15:57;;;;;;;7.45;4.35;;;21.60;93.40;;;;;;10363891;28;20045;-64
2022/08/19 09:20:57;;;;;;;5.85;4.07;;;21.70;93.30;;;;;;10369466;28;20575;-64
2022/08/19 09:25:58;;;;;;;6.68;4.60;;;21.70;93.30;;;;;;10346195;28;20153;-63
2022/08/19 09:30:59;;;;;;;7.82;4.70;;;21.80;93.30;;;;;;10365284;28;20033;-64
2022/08/19 09:36:08;;;;;;;5.97;4.45;;;21.90;93.30;;;;;;10365381;28;20033;-64
2022/08/19 09:41:15;;;;;;;6.38;4.95;;;21.90;93.30;;;;;;10366741;28;20032;-63
2022/08/19 09:46:17;;;;;;;9.57;5.20;;;22.00;93.40;;;;;;10366548;28;20082;-63
2022/08/19 09:51:22;;;;;;;7.03;4.72;;;22.00;93.30;;;;;;10353422;28;20412;-63
2022/08/19 09:56:24;;;;;;;7.85;4.70;;;22.00;93.30;;;;;;10365954;28;20314;-63
2022/08/19 10:01:27;;;;;;;7.75;5.35;;;22.10;93.30;;;;;;10362997;28;20064;-64
2022/08/19 10:06:32;;;;;;;9.40;5.60;;;22.20;93.30;;;;;;10364278;28;20045;-64
2022/08/19 10:11:34;;;;;;;7.25;5.72;;;22.20;93.30;;;;;;10362769;28;20469;-64
2022/08/19 10:16:37;;;;;;;7.93;5.47;;;22.30;93.20;;;;;;10360995;28;20419;-64
2022/08/19 10:21:39;;;;;;;8.57;5.90;;;22.40;93.30;;;;;;10342688;28;20226;-63
2022/08/19 10:26:47;;;;;;;10.15;7.10;;;22.40;93.20;;;;;;10365251;28;20158;-63
2022/08/19 10:31:48;;;;;;;8.80;6.40;;;22.40;93.30;;;;;;10342811;28;20466;-63
2022/08/19 10:36:49;;;;;;;10.13;6.82;;;22.40;93.30;;;;;;10363470;28;20037;-64
2022/08/19 10:42:10;;;;;;;9.48;6.22;;;22.50;93.30;;;;;;10364943;28;20908;-63
2022/08/19 10:47:11;;;;;;;7.65;6.20;;;22.60;93.30;;;;;;10361146;28;20052;-64
2022/08/19 10:57:32;;;;;;;8.98;7.00;;;22.70;93.20;;;;;;10363278;28;20581;-63
2022/08/19 11:03:01;;;;;;;11.45;7.95;;;22.80;93.20;;;;;;10368700;28;20429;-63
2022/08/19 11:08:30;;;;;;;10.20;7.25;;;22.90;93.30;;;;;;10431154;22;20049;-64
2022/08/19 11:14:02;;;;;;;8.77;7.15;;;23.00;93.20;;;;;;10407489;22;20473;-63
2022/08/19 11:19:23;;;;;;;9.80;7.47;;;22.90;93.20;;;;;;10362573;28;20135;-64
2022/08/19 11:24:25;;;;;;;10.80;8.05;;;22.90;93.10;;;;;;10376258;28;20079;-63
2022/08/19 11:29:27;;;;;;;10.32;7.82;;;23.00;93.10;;;;;;10379169;28;20548;-64
2022/08/19 11:34:29;;;;;;;10.48;8.18;;;23.00;93.10;;;;;;10385206;28;20031;-63
2022/08/19 11:39:31;;;;;;;11.43;8.38;;;23.10;93.10;;;;;;10374120;28;20375;-64
2022/08/19 11:44:31;;;;;;;11.05;8.77;;;23.10;93.10;;;;;;10376396;28;20069;-62
2022/08/19 11:49:35;;;;;;;14.88;9.18;;;23.20;93.10;;;;;;10359890;28;20032;-63
2022/08/19 11:54:36;;;;;;;9.95;7.93;;;23.20;93.10;;;;;;10373468;28;20471;-63
2022/08/19 11:59:37;;;;;;;10.82;8.30;;;23.30;93.10;;;;;;10382736;28;20531;-64
2022/08/19 12:04:38;;;;;;;10.55;7.85;;;23.30;93.00;;;;;;10369093;28;20339;-63
2022/08/19 12:09:38;;;;;;;11.88;8.20;;;23.40;93.00;;;;;;10357837;28;20394;-62
2022/08/19 12:14:39;;;;;;;11.55;8.32;;;23.40;93.00;;;;;;10351948;28;20048;-64
2022/08/19 12:19:40;;;;;;;12.60;8.65;;;23.50;92.90;;;;;;10374854;28;20640;-63
2022/08/19 12:24:41;;;;;;;10.35;8.40;;;23.60;92.90;;;;;;10356155;28;20477;-64
2022/08/19 12:29:41;;;;;;;11.13;8.25;;;23.60;92.90;;;;;;10348619;28;20044;-63
2022/08/19 12:34:42;;;;;;;10.27;7.72;;;23.60;92.90;;;;;;10370835;28;20033;-64
2022/08/19 12:39:43;;;;;;;12.60;8.10;;;23.70;92.90;;;;;;10371881;28;20028;-64
2022/08/19 12:44:44;;;;;;;13.40;8.13;;;23.70;92.80;;;;;;10369685;28;21803;-62
2022/08/19 12:55:21;;;;;;;10.10;7.72;;;23.80;92.80;;;;;;10297229;22;20109;-63
2022/08/19 13:05:36;;;;;;;10.20;7.60;;;23.90;92.80;;;;;;10414744;22;20061;-65
2022/08/19 13:10:43;;;;;;;10.15;7.65;;;24.00;92.80;;;;;;10329793;28;20273;-64
2022/08/19 13:15:45;;;;;;;9.93;7.88;;;24.00;92.80;;;;;;10353927;28;20036;-62
2022/08/19 13:20:49;;;;;;;10.18;7.93;;;24.10;92.70;;;;;;10364196;28;20972;-64
2022/08/19 13:26:04;;;;;;;11.13;8.48;;;24.20;92.70;;;;;;10342373;28;20048;-64
2022/08/19 13:36:25;;;;;;;11.98;8.07;;;24.40;92.60;;;;;;10373654;28;20580;-62
2022/08/19 13:41:26;;;;;;;11.10;8.38;;;24.50;92.60;;;;;;10386531;28;20048;-62
2022/08/19 13:46:29;;;;;;;10.68;8.02;;;24.40;92.70;;;;;;10374467;28;20040;-61
2022/08/19 13:51:30;;;;;;;14.50;8.20;;;24.40;92.90;;;;;;10367338;28;20033;-62
2022/08/19 13:56:31;;;;;;;11.73;8.15;;;24.40;93.00;;;;;;10374459;28;20429;-62
2022/08/19 14:01:32;;;;;;;9.85;8.05;;;24.50;93.00;;;;;;10363291;28;20056;-62
2022/08/19 14:06:33;;;;;;;10.07;7.75;;;24.70;93.00;;;;;;10373586;28;20052;-62
2022/08/19 14:11:34;;;;;;;10.20;7.95;;;24.70;93.00;;;;;;10364678;28;20497;-63
2022/08/19 14:16:35;;;;;;;10.15;8.07;;;24.60;93.10;;;;;;10369270;28;20506;-63
2022/08/19 14:21:36;;;;;;;10.07;7.43;;;24.50;93.20;;;;;;10369083;28;20064;-62
2022/08/19 14:26:38;;;;;;;10.90;8.32;;;24.50;93.30;;;;;;10370621;28;20233;-63
2022/08/19 14:31:41;;;;;;;10.75;7.88;;;24.50;93.40;;;;;;10377894;28;20080;-62
2022/08/19 14:36:42;;;;;;;10.57;7.80;;;24.50;93.50;;;;;;10384828;28;20257;-63
2022/08/19 14:41:42;;;;;;;9.77;7.57;;;24.50;93.50;;;;;;10382439;28;20110;-62
2022/08/19 14:46:44;;;;;;;9.32;7.90;;;24.50;93.60;;;;;;10385629;28;20048;-62
2022/08/19 14:51:46;;;;;;;12.15;7.10;;;24.50;93.60;;;;;;10378624;28;20033;-62
2022/08/19 14:56:47;;;;;;;9.15;7.30;;;24.50;93.70;;;;;;10372908;28;20845;-62
2022/08/19 15:01:48;;;;;;;9.35;7.40;;;24.50;93.70;;;;;;10378609;28;20588;-62
2022/08/19 15:06:50;;;;;;;9.63;7.80;;;24.50;93.70;;;;;;10378322;28;20333;-62
2022/08/19 15:11:51;;;;;;;9.65;7.57;;;24.50;93.70;;;;;;10369473;28;20211;-62
2022/08/19 15:16:52;;;;;;;9.68;7.22;;;24.50;93.80;;;;;;10390931;28;20109;-64
2022/08/19 15:21:54;;;;;;;9.20;6.40;;;24.50;93.80;;;;;;10377090;28;20041;-65
2022/08/19 15:26:55;;;;;;;9.13;6.97;;;24.40;93.70;;;;;;10385471;28;20075;-64
2022/08/19 15:31:57;;;;;;;10.13;7.07;;;24.40;93.80;;;;;;10379711;28;20579;-65
2022/08/19 15:36:58;;;;;;;11.18;5.97;;;24.40;93.80;;;;;;10381367;28;21297;-63
2022/08/19 15:42:00;;;;;;;8.80;6.50;;;24.40;93.90;;;;;;10372672;28;20556;-63
2022/08/19 15:47:00;;;;;;;6.10;5.50;;;24.40;93.90;;;;;;10373912;28;20095;-63
2022/08/19 15:52:01;;;;;;;7.47;6.13;;;24.50;93.80;;;;;;10372012;28;20033;-64
2022/08/19 16:07:46;;;;;;;8.65;5.78;;;24.50;93.70;;;;;;10371736;28;20029;-64
2022/08/19 16:12:47;;;;;;;6.47;5.55;;;24.50;93.70;;;;;;10375644;28;20033;-64
2022/08/19 16:17:48;;;;;;;8.35;5.88;;;24.50;93.70;;;;;;10371117;28;20814;-64
2022/08/19 16:22:48;;;;;;;7.20;5.82;;;24.50;93.80;;;;;;10366175;28;20044;-62
2022/08/19 16:27:49;;;;;;;8.77;5.32;;;24.50;93.80;;;;;;10370190;28;20073;-64
2022/08/19 16:32:50;;;;;;;10.48;6.10;;;24.40;94.20;;;;;;10369322;28;20036;-66
2022/08/19 16:37:51;;;;;;;8.18;5.28;;;24.30;94.10;;;;;;10377776;28;20035;-67
2022/08/19 16:43:01;;;;;;;10.93;6.03;;;24.30;94.10;;;;;;10366962;28;20099;-66
2022/08/19 16:48:03;;;;;;;12.18;5.97;;;24.30;94.20;;;;;;10344498;28;20209;-65
2022/08/19 16:53:05;;;;;;;10.00;6.38;;;24.20;94.30;;;;;;10364729;28;20025;-64
2022/08/19 16:58:06;;;;;;;11.05;6.22;;;24.20;94.40;;;;;;10356761;28;20029;-64
2022/08/19 17:03:09;;;;;;;10.80;6.43;;;24.10;94.40;;;;;;10369929;28;20572;-64
2022/08/19 17:08:17;;;;;;;10.20;6.28;;;24.10;94.50;;;;;;10367914;28;20868;-65
2022/08/19 17:13:21;;;;;;;10.65;7.10;;;24.00;94.70;;;;;;10363242;28;20325;-65
2022/08/19 17:18:32;;;;;;;12.25;7.68;;;24.00;94.80;;;;;;10363732;28;20017;-65
2022/08/19 17:23:39;;;;;;;13.70;7.07;;;23.90;95.00;;;;;;10343907;28;20045;-65
2022/08/19 17:28:40;;;;;;;14.40;7.15;;;23.90;95.10;;;;;;10348535;28;20439;-62
2022/08/19 17:33:41;;;;;;;10.35;6.20;;;23.80;95.20;;;;;;10366134;28;20294;-62
2022/08/19 17:38:42;;;;;;;8.80;5.18;;;23.80;95.30;;;;;;10360713;28;20037;-62
2022/08/19 17:43:44;;;;;;;9.23;5.40;;;23.80;95.30;;;;;;10365603;28;20100;-63
2022/08/19 17:48:49;;;;;;;10.00;6.10;;;23.80;95.30;;;;;;10364279;28;20028;-63
2022/08/19 17:54:01;;;;;;;7.80;5.57;;;23.80;95.40;;;;;;10358922;28;20936;-63
2022/08/19 17:59:05;;;;;;;8.20;5.47;;;23.80;95.40;;;;;;10360031;28;20403;-63
2022/08/19 18:04:06;;;;;;;9.23;5.40;;;23.80;95.50;;;;;;10357259;28;20147;-64
2022/08/19 18:09:07;;;;;;;5.20;4.07;;;23.80;95.50;;;;;;10360100;28;20029;-63
2022/08/19 18:14:08;;;;;;;7.85;4.95;;;23.80;95.60;;;;;;10339186;28;20436;-63
2022/08/19 18:19:08;;;;;;;7.10;4.95;;;23.80;95.60;;;;;;10367919;28;20029;-63
2022/08/19 18:24:09;;;;;;;6.97;4.63;;;23.80;95.70;;;;;;10360179;28;20067;-63
2022/08/19 18:29:12;;;;;;;7.68;4.10;;;23.70;95.70;;;;;;10364040;28;20034;-62
2022/08/19 18:34:14;;;;;;;6.60;4.70;;;23.70;95.70;;;;;;10339617;28;20576;-63
2022/08/19 18:49:54;;;;;;;5.95;3.92;;;23.60;95.90;;;;;;10355092;28;20433;-62
2022/08/19 18:54:55;;;;;;;6.93;4.30;;;23.60;95.90;;;;;;10356001;28;20198;-62
2022/08/19 18:59:56;;;;;;;4.40;3.65;;;23.60;96.00;;;;;;10361027;28;20760;-62
2022/08/19 19:04:57;;;;;;;4.85;4.03;;;23.60;95.90;;;;;;10363023;28;20243;-62
2022/08/19 19:09:57;;;;;;;7.13;3.80;;;23.60;96.00;;;;;;10355098;28;20401;-62
2022/08/19 19:14:58;;;;;;;5.20;3.72;;;23.50;95.90;;;;;;10355562;28;20054;-62
2022/08/19 19:19:59;;;;;;;4.00;3.42;;;23.50;96.00;;;;;;10368359;28;20029;-62
2022/08/19 19:25:01;;;;;;;4.30;3.17;;;23.50;96.00;;;;;;10409948;28;20051;-62
2022/08/19 19:30:03;;;;;;;3.63;3.30;;;23.50;96.00;;;;;;10435430;28;20028;-62
2022/08/19 19:35:05;;;;;;;4.60;3.22;;;23.40;96.00;;;;;;10453028;28;20028;-62
2022/08/19 19:40:06;;;;;;;5.50;3.70;;;23.40;96.00;;;;;;10448615;28;20025;-62
2022/08/19 19:45:07;;;;;;;7.65;2.75;;;23.40;96.00;;;;;;10444571;28;20451;-62
2022/08/19 19:50:09;;;;;;;6.30;2.80;;;23.40;96.00;;;;;;10451970;28;20067;-62
2022/08/19 19:55:16;;;;;;;3.85;2.92;;;23.40;96.00;;;;;;10431256;28;20044;-62
2022/08/19 20:00:17;;;;;;;4.20;3.10;;;23.30;96.00;;;;;;10443250;28;20029;-62
2022/08/19 20:05:20;;;;;;;3.35;2.70;;;23.30;96.00;;;;;;10444245;28;20048;-62
2022/08/19 20:10:20;;;;;;;4.43;3.10;;;23.30;96.10;;;;;;10442176;28;20155;-61
2022/08/19 20:15:22;;;;;;;2.83;2.40;;;23.30;96.10;;;;;;10439934;28;20032;-62
2022/08/19 20:20:24;;;;;;;3.00;2.70;;;23.30;96.10;;;;;;10445029;28;20245;-61
2022/08/19 20:25:25;;;;;;;4.50;2.50;;;23.20;96.00;;;;;;10445828;28;20044;-61
2022/08/19 20:30:27;;;;;;;2.83;2.50;;;23.20;96.00;;;;;;10444095;28;20032;-62
2022/08/19 20:35:28;;;;;;;2.88;2.50;;;23.20;96.10;;;;;;10439624;28;20033;-62
2022/08/19 20:40:29;;;;;;;2.78;2.40;;;23.20;96.10;;;;;;10441036;28;20484;-62
2022/08/19 20:45:31;;;;;;;2.40;2.20;;;23.20;96.10;;;;;;10437957;28;20150;-62
2022/08/19 20:50:34;;;;;;;3.30;2.65;;;23.20;96.10;;;;;;10445991;28;20033;-62
2022/08/19 20:55:34;;;;;;;3.80;2.53;;;23.10;96.10;;;;;;10430879;28;20143;-62
2022/08/19 21:00:35;;;;;;;3.03;2.22;;;23.10;96.10;;;;;;10441983;28;20105;-62
2022/08/19 21:05:36;;;;;;;2.80;2.50;;;23.10;96.10;;;;;;10435429;28;20036;-62
2022/08/19 21:10:37;;;;;;;3.20;2.38;;;23.10;96.10;;;;;;10435781;28;20036;-61
2022/08/19 21:15:41;;;;;;;2.90;2.10;;;23.10;96.10;;;;;;10436574;28;20074;-62
2022/08/19 21:20:45;;;;;;;2.75;2.20;;;23.10;96.10;;;;;;10433754;28;20515;-61
2022/08/19 21:25:46;;;;;;;2.88;2.33;;;23.00;96.10;;;;;;10434818;28;20029;-61
2022/08/19 21:30:47;;;;;;;2.40;2.20;;;23.00;96.10;;;;;;10437249;28;20025;-61
2022/08/19 21:35:48;;;;;;;3.05;2.28;;;23.00;96.10;;;;;;10435384;28;20057;-63
2022/08/19 21:40:49;;;;;;;3.80;2.60;;;23.00;96.20;;;;;;10436896;28;20124;-61
2022/08/19 21:45:50;;;;;;;3.05;2.50;;;23.00;96.20;;;;;;10439925;28;20051;-62
2022/08/19 21:50:51;;;;;;;2.53;2.30;;;23.00;96.20;;;;;;10436881;28;20412;-61
2022/08/19 21:55:52;;;;;;;2.97;2.50;;;22.90;96.20;;;;;;10435867;28;20180;-62
2022/08/19 22:00:53;;;;;;;4.68;2.28;;;22.90;96.20;;;;;;10434157;28;20342;-61
2022/08/19 22:05:53;;;;;;;3.00;2.45;;;23.00;96.20;;;;;;10434317;28;20047;-62
2022/08/19 22:10:54;;;;;;;2.45;2.25;;;22.90;96.20;;;;;;10438032;28;20426;-61
2022/08/19 22:15:55;;;;;;;2.58;2.10;;;22.90;96.20;;;;;;10435101;28;20025;-61
2022/08/19 22:20:56;;;;;;;2.13;1.92;;;22.90;96.20;;;;;;10435164;28;20032;-62
2022/08/19 22:25:56;;;;;;;2.65;2.17;;;22.90;96.20;;;;;;10434642;28;20029;-62
2022/08/19 22:30:57;;;;;;;3.08;2.70;;;22.80;96.20;;;;;;10435568;28;20403;-62
2022/08/19 22:35:59;;;;;;;2.10;1.90;;;22.80;96.20;;;;;;10435040;28;20025;-62
2022/08/19 22:40:59;;;;;;;4.28;2.53;;;22.80;96.20;;;;;;10434030;28;20128;-62
2022/08/19 22:46:01;;;;;;;2.42;2.22;;;22.80;96.20;;;;;;10443252;28;20115;-63
2022/08/19 22:56:21;;;;;;;2.58;2.35;;;22.70;96.20;;;;;;10440452;28;20033;-62
2022/08/19 23:01:23;;;;;;;2.72;1.88;;;22.60;96.20;;;;;;10438063;28;20505;-62
2022/08/19 23:06:24;;;;;;;2.33;2.13;;;22.70;96.20;;;;;;10402291;28;20056;-62
2022/08/19 23:11:25;;;;;;;2.38;2.17;;;22.70;96.20;;;;;;10401347;28;20052;-61
2022/08/19 23:16:25;;;;;;;4.03;2.25;;;22.70;96.20;;;;;;10406350;28;20033;-62
2022/08/19 23:21:27;;;;;;;2.58;2.17;;;22.60;96.20;;;;;;10398207;28;20056;-62
2022/08/19 23:26:28;;;;;;;2.22;2.03;;;22.60;96.20;;;;;;10387269;28;20049;-62
2022/08/19 23:31:28;;;;;;;3.40;1.80;;;22.60;96.20;;;;;;10400938;28;20795;-61
2022/08/19 23:36:29;;;;;;;2.70;1.92;;;22.60;96.20;;;;;;10409461;28;20113;-61
2022/08/19 23:41:30;;;;;;;2.63;2.22;;;22.50;96.10;;;;;;10383353;28;20029;-61
2022/08/19 23:46:31;;;;;;;2.70;2.10;;;22.50;96.10;;;;;;10404931;28;20413;-61
2022/08/19 23:51:32;;;;;;;2.97;1.90;;;22.50;96.10;;;;;;10399767;28;20025;-61
2022/08/19 23:56:33;;;;;;;2.22;1.95;;;22.50;96.10;;;;;;10399135;28;20091;-61
